sensor_id;sensor_type;location;lat;lon;timestamp;pressure;altitude;pressure_sealevel;temperature;humidity
21234;BME280;10774;42.178;26.578;2023-10-13T00:01:23;100523.75;;;11.21;91.00
21234;BME280;10774;42.178;26.578;2023-10-13T00:03:52;100528.25;;;11.37;90.69
21234;BME280;10774;42.178;26.578;2023-10-13T00:06:18;100510.72;;;11.45;90.83
21234;BME280;10774;42.178;26.578;2023-10-13T00:08:44;100525.38;;;11.40;90.06
21234;BME280;10774;42.178;26.578;2023-10-13T00:11:14;100508.69;;;11.49;89.38
21234;BME280;10774;42.178;26.578;2023-10-13T00:13:40;100514.22;;;11.16;90.23
21234;BME280;10774;42.178;26.578;2023-10-13T00:16:08;100503.81;;;11.10;91.60
21234;BME280;10774;42.178;26.578;2023-10-13T00:18:35;100518.53;;;11.34;90.97
21234;BME280;10774;42.178;26.578;2023-10-13T00:21:10;100527.03;;;11.11;90.71
21234;BME280;10774;42.178;26.578;2023-10-13T00:23:40;100528.22;;;10.58;94.01
21234;BME280;10774;42.178;26.578;2023-10-13T00:26:17;100507.53;;;10.27;97.68
21234;BME280;10774;42.178;26.578;2023-10-13T00:28:43;100513.28;;;10.19;100.00
21234;BME280;10774;42.178;26.578;2023-10-13T00:31:12;100511.38;;;10.38;100.00
21234;BME280;10774;42.178;26.578;2023-10-13T00:33:40;100521.44;;;10.35;100.00
21234;BME280;10774;42.178;26.578;2023-10-13T00:36:11;100512.91;;;10.27;100.00
21234;BME280;10774;42.178;26.578;2023-10-13T00:38:44;100495.38;;;10.19;100.00
21234;BME280;10774;42.178;26.578;2023-10-13T00:41:14;100514.31;;;10.16;100.00
21234;BME280;10774;42.178;26.578;2023-10-13T00:43:45;100516.22;;;10.32;100.00
21234;BME280;10774;42.178;26.578;2023-10-13T00:46:11;100502.34;;;9.89;100.00
21234;BME280;10774;42.178;26.578;2023-10-13T00:48:41;100509.84;;;10.00;100.00
21234;BME280;10774;42.178;26.578;2023-10-13T00:51:10;100519.44;;;10.21;100.00
21234;BME280;10774;42.178;26.578;2023-10-13T00:53:56;100514.31;;;10.16;100.00
21234;BME280;10774;42.178;26.578;2023-10-13T00:56:22;100519.00;;;9.95;100.00
21234;BME280;10774;42.178;26.578;2023-10-13T00:58:53;100517.16;;;9.96;100.00
21234;BME280;10774;42.178;26.578;2023-10-13T01:01:22;100491.31;;;9.43;100.00
21234;BME280;10774;42.178;26.578;2023-10-13T01:06:21;100502.06;;;9.60;100.00
21234;BME280;10774;42.178;26.578;2023-10-13T01:08:58;100506.78;;;9.73;100.00
21234;BME280;10774;42.178;26.578;2023-10-13T01:11:25;100506.47;;;9.79;100.00
21234;BME280;10774;42.178;26.578;2023-10-13T01:13:52;100507.56;;;9.92;100.00
21234;BME280;10774;42.178;26.578;2023-10-13T01:16:21;100500.00;;;9.65;100.00
21234;BME280;10774;42.178;26.578;2023-10-13T01:18:46;100490.38;;;9.44;100.00
21234;BME280;10774;42.178;26.578;2023-10-13T01:21:18;100502.75;;;9.64;100.00
21234;BME280;10774;42.178;26.578;2023-10-13T01:23:52;100500.78;;;9.67;100.00
21234;BME280;10774;42.178;26.578;2023-10-13T01:26:17;100493.69;;;9.66;100.00
21234;BME280;10774;42.178;26.578;2023-10-13T01:28:49;100492.09;;;9.80;100.00
21234;BME280;10774;42.178;26.578;2023-10-13T01:31:14;100490.22;;;9.82;100.00
21234;BME280;10774;42.178;26.578;2023-10-13T01:33:50;100491.78;;;9.86;100.00
21234;BME280;10774;42.178;26.578;2023-10-13T01:36:19;100500.44;;;9.91;100.00
21234;BME280;10774;42.178;26.578;2023-10-13T01:38:45;100498.41;;;9.96;100.00
21234;BME280;10774;42.178;26.578;2023-10-13T01:41:12;100482.63;;;9.90;100.00
21234;BME280;10774;42.178;26.578;2023-10-13T01:43:38;100493.22;;;9.93;100.00
21234;BME280;10774;42.178;26.578;2023-10-13T01:46:03;100472.88;;;9.89;100.00
21234;BME280;10774;42.178;26.578;2023-10-13T01:48:29;100478.94;;;9.75;100.00
21234;BME280;10774;42.178;26.578;2023-10-13T01:50:57;100483.06;;;9.65;100.00
21234;BME280;10774;42.178;26.578;2023-10-13T01:53:27;100474.94;;;9.49;100.00
21234;BME280;10774;42.178;26.578;2023-10-13T01:55:54;100485.63;;;10.01;100.00
21234;BME280;10774;42.178;26.578;2023-10-13T01:58:22;100489.75;;;9.39;100.00
21234;BME280;10774;42.178;26.578;2023-10-13T02:00:48;100489.69;;;8.85;100.00
21234;BME280;10774;42.178;26.578;2023-10-13T02:03:14;100484.41;;;8.84;100.00
21234;BME280;10774;42.178;26.578;2023-10-13T02:05:45;100494.81;;;8.90;100.00
21234;BME280;10774;42.178;26.578;2023-10-13T02:08:15;100469.22;;;9.03;100.00
21234;BME280;10774;42.178;26.578;2023-10-13T02:10:58;100482.00;;;9.33;100.00
21234;BME280;10774;42.178;26.578;2023-10-13T02:13:26;100469.81;;;9.45;100.00
21234;BME280;10774;42.178;26.578;2023-10-13T02:15:56;100478.41;;;9.68;100.00
21234;BME280;10774;42.178;26.578;2023-10-13T02:18:23;100470.03;;;9.75;100.00
21234;BME280;10774;42.178;26.578;2023-10-13T02:20:56;100459.53;;;9.70;100.00
21234;BME280;10774;42.178;26.578;2023-10-13T02:23:29;100464.81;;;9.89;100.00
21234;BME280;10774;42.178;26.578;2023-10-13T02:25:55;100467.53;;;9.72;100.00
21234;BME280;10774;42.178;26.578;2023-10-13T02:28:28;100464.66;;;9.92;100.00
21234;BME280;10774;42.178;26.578;2023-10-13T02:31:01;100473.97;;;9.85;100.00
21234;BME280;10774;42.178;26.578;2023-10-13T02:33:28;100467.50;;;9.20;100.00
21234;BME280;10774;42.178;26.578;2023-10-13T02:35:58;100469.13;;;9.22;100.00
21234;BME280;10774;42.178;26.578;2023-10-13T02:38:25;100467.88;;;9.12;100.00
21234;BME280;10774;42.178;26.578;2023-10-13T02:41:00;100473.94;;;9.15;100.00
21234;BME280;10774;42.178;26.578;2023-10-13T02:43:39;100472.06;;;9.18;100.00
21234;BME280;10774;42.178;26.578;2023-10-13T02:46:06;100452.53;;;9.15;100.00
21234;BME280;10774;42.178;26.578;2023-10-13T02:48:31;100470.50;;;9.31;100.00
21234;BME280;10774;42.178;26.578;2023-10-13T02:51:06;100461.09;;;9.22;100.00
21234;BME280;10774;42.178;26.578;2023-10-13T02:53:44;100481.66;;;8.85;100.00
21234;BME280;10774;42.178;26.578;2023-10-13T02:56:15;100474.03;;;8.40;100.00
21234;BME280;10774;42.178;26.578;2023-10-13T02:58:47;100469.63;;;8.19;100.00
21234;BME280;10774;42.178;26.578;2023-10-13T03:01:19;100485.03;;;8.72;100.00
21234;BME280;10774;42.178;26.578;2023-10-13T03:03:50;100494.56;;;8.40;100.00
21234;BME280;10774;42.178;26.578;2023-10-13T03:06:17;100493.84;;;8.55;100.00
21234;BME280;10774;42.178;26.578;2023-10-13T03:08:46;100468.06;;;8.33;100.00
21234;BME280;10774;42.178;26.578;2023-10-13T03:11:12;100488.34;;;8.77;100.00
21234;BME280;10774;42.178;26.578;2023-10-13T03:13:40;100487.00;;;8.85;100.00
21234;BME280;10774;42.178;26.578;2023-10-13T03:16:16;100483.69;;;8.80;100.00
21234;BME280;10774;42.178;26.578;2023-10-13T03:18:43;100468.25;;;8.49;100.00
21234;BME280;10774;42.178;26.578;2023-10-13T03:21:19;100491.22;;;8.53;100.00
21234;BME280;10774;42.178;26.578;2023-10-13T03:23:55;100490.06;;;8.40;100.00
21234;BME280;10774;42.178;26.578;2023-10-13T03:26:20;100491.56;;;8.64;100.00
21234;BME280;10774;42.178;26.578;2023-10-13T03:28:46;100482.13;;;8.76;100.00
21234;BME280;10774;42.178;26.578;2023-10-13T03:31:18;100483.00;;;8.77;100.00
21234;BME280;10774;42.178;26.578;2023-10-13T03:33:44;100481.66;;;8.85;100.00
21234;BME280;10774;42.178;26.578;2023-10-13T03:36:13;100479.88;;;8.86;100.00
21234;BME280;10774;42.178;26.578;2023-10-13T03:38:58;100484.59;;;8.81;100.00
21234;BME280;10774;42.178;26.578;2023-10-13T03:41:24;100487.19;;;8.63;100.00
21234;BME280;10774;42.178;26.578;2023-10-13T03:43:55;100484.31;;;8.49;100.00
21234;BME280;10774;42.178;26.578;2023-10-13T03:46:34;100483.34;;;8.50;100.00
21234;BME280;10774;42.178;26.578;2023-10-13T03:49:01;100484.84;;;8.37;100.00
21234;BME280;10774;42.178;26.578;2023-10-13T03:51:29;100486.44;;;8.41;100.00
21234;BME280;10774;42.178;26.578;2023-10-13T03:53:58;100480.34;;;7.57;100.00
21234;BME280;10774;42.178;26.578;2023-10-13T03:56:27;100481.69;;;7.68;100.00
21234;BME280;10774;42.178;26.578;2023-10-13T03:58:54;100488.50;;;7.95;100.00
21234;BME280;10774;42.178;26.578;2023-10-13T04:01:25;100493.13;;;7.92;100.00
21234;BME280;10774;42.178;26.578;2023-10-13T04:04:19;100488.25;;;7.81;100.00
21234;BME280;10774;42.178;26.578;2023-10-13T04:07:13;100484.50;;;7.85;100.00
21234;BME280;10774;42.178;26.578;2023-10-13T04:09:59;100485.44;;;7.84;100.00
21234;BME280;10774;42.178;26.578;2023-10-13T04:12:43;100484.19;;;8.11;100.00
21234;BME280;10774;42.178;26.578;2023-10-13T04:15:27;100471.50;;;8.17;100.00
21234;BME280;10774;42.178;26.578;2023-10-13T04:18:02;100463.25;;;8.21;100.00
21234;BME280;10774;42.178;26.578;2023-10-13T04:20:39;100479.94;;;8.47;100.00
21234;BME280;10774;42.178;26.578;2023-10-13T04:23:05;100482.53;;;8.48;100.00
21234;BME280;10774;42.178;26.578;2023-10-13T04:25:51;100465.84;;;8.62;100.00
21234;BME280;10774;42.178;26.578;2023-10-13T04:28:16;100470.16;;;8.64;100.00
21234;BME280;10774;42.178;26.578;2023-10-13T04:31:02;100485.03;;;8.72;100.00
21234;BME280;10774;42.178;26.578;2023-10-13T04:33:37;100489.66;;;8.49;100.00
21234;BME280;10774;42.178;26.578;2023-10-13T04:36:17;100484.16;;;8.32;100.00
21234;BME280;10774;42.178;26.578;2023-10-13T04:38:49;100490.78;;;8.62;100.00
21234;BME280;10774;42.178;26.578;2023-10-13T04:41:29;100487.19;;;8.63;100.00
21234;BME280;10774;42.178;26.578;2023-10-13T04:44:14;100495.94;;;8.86;100.00
21234;BME280;10774;42.178;26.578;2023-10-13T04:46:56;100506.72;;;8.66;100.00
21234;BME280;10774;42.178;26.578;2023-10-13T04:49:25;100499.41;;;8.88;100.00
21234;BME280;10774;42.178;26.578;2023-10-13T04:52:01;100515.38;;;9.08;100.00
21234;BME280;10774;42.178;26.578;2023-10-13T04:54:33;100511.81;;;9.44;100.00
21234;BME280;10774;42.178;26.578;2023-10-13T04:57:02;100523.00;;;9.52;100.00
21234;BME280;10774;42.178;26.578;2023-10-13T04:59:47;100514.31;;;7.76;100.00
21234;BME280;10774;42.178;26.578;2023-10-13T05:02:31;100541.47;;;7.23;100.00
21234;BME280;10774;42.178;26.578;2023-10-13T05:05:09;100545.03;;;8.06;100.00
21234;BME280;10774;42.178;26.578;2023-10-13T05:07:44;100540.44;;;8.10;100.00
21234;BME280;10774;42.178;26.578;2023-10-13T05:10:29;100541.41;;;8.48;100.00
21234;BME280;10774;42.178;26.578;2023-10-13T05:13:13;100537.91;;;8.67;100.00
21234;BME280;10774;42.178;26.578;2023-10-13T05:15:57;100550.53;;;9.01;100.00
21234;BME280;10774;42.178;26.578;2023-10-13T05:18:41;100545.66;;;9.28;100.00
21234;BME280;10774;42.178;26.578;2023-10-13T05:21:26;100552.72;;;9.48;100.00
21234;BME280;10774;42.178;26.578;2023-10-13T05:24:09;100545.63;;;9.64;100.00
21234;BME280;10774;42.178;26.578;2023-10-13T05:26:53;100548.59;;;9.77;100.00
21234;BME280;10774;42.178;26.578;2023-10-13T05:29:39;100556.78;;;10.08;100.00
21234;BME280;10774;42.178;26.578;2023-10-13T05:32:24;100557.41;;;10.31;100.00
21234;BME280;10774;42.178;26.578;2023-10-13T05:35:08;100560.56;;;10.39;100.00
21234;BME280;10774;42.178;26.578;2023-10-13T05:37:52;100570.03;;;9.94;100.00
21234;BME280;10774;42.178;26.578;2023-10-13T05:40:36;100561.50;;;10.20;97.66
21234;BME280;10774;42.178;26.578;2023-10-13T05:43:20;100552.50;;;10.21;98.27
21234;BME280;10774;42.178;26.578;2023-10-13T05:46:05;100572.13;;;10.57;98.67
21234;BME280;10774;42.178;26.578;2023-10-13T05:48:57;100567.56;;;10.74;96.57
21234;BME280;10774;42.178;26.578;2023-10-13T05:51:29;100580.41;;;11.01;98.21
21234;BME280;10774;42.178;26.578;2023-10-13T05:54:03;100576.97;;;11.31;96.43
21234;BME280;10774;42.178;26.578;2023-10-13T05:56:48;100572.56;;;10.65;96.86
21234;BME280;10774;42.178;26.578;2023-10-13T05:59:34;100572.38;;;10.52;98.22
21234;BME280;10774;42.178;26.578;2023-10-13T06:02:19;100570.97;;;10.28;100.00
21234;BME280;10774;42.178;26.578;2023-10-13T06:05:04;100562.72;;;10.65;100.00
21234;BME280;10774;42.178;26.578;2023-10-13T06:07:48;100573.69;;;11.25;100.00
21234;BME280;10774;42.178;26.578;2023-10-13T06:10:33;100560.19;;;11.73;100.00
21234;BME280;10774;42.178;26.578;2023-10-13T06:13:17;100565.53;;;12.19;100.00
21234;BME280;10774;42.178;26.578;2023-10-13T06:16:14;100570.66;;;12.52;97.86
21234;BME280;10774;42.178;26.578;2023-10-13T06:18:59;100568.19;;;12.77;95.94
21234;BME280;10774;42.178;26.578;2023-10-13T06:21:44;100561.31;;;12.86;94.75
21234;BME280;10774;42.178;26.578;2023-10-13T06:24:28;100551.50;;;13.14;93.68
21234;BME280;10774;42.178;26.578;2023-10-13T06:27:12;100547.81;;;13.29;93.46
21234;BME280;10774;42.178;26.578;2023-10-13T06:29:57;100561.91;;;13.47;92.67
21234;BME280;10774;42.178;26.578;2023-10-13T06:32:23;100580.19;;;13.56;92.49
21234;BME280;10774;42.178;26.578;2023-10-13T06:37:23;100555.44;;;13.49;91.61
21234;BME280;10774;42.178;26.578;2023-10-13T06:39:52;100560.06;;;12.49;98.15
21234;BME280;10774;42.178;26.578;2023-10-13T06:42:24;100568.72;;;12.54;100.00
21234;BME280;10774;42.178;26.578;2023-10-13T06:44:55;100572.88;;;12.88;99.36
21234;BME280;10774;42.178;26.578;2023-10-13T06:47:24;100578.72;;;12.38;100.00
21234;BME280;10774;42.178;26.578;2023-10-13T06:49:50;100559.72;;;12.55;99.69
21234;BME280;10774;42.178;26.578;2023-10-13T06:52:19;100562.75;;;12.49;100.00
21234;BME280;10774;42.178;26.578;2023-10-13T06:54:44;100572.88;;;12.45;100.00
21234;BME280;10774;42.178;26.578;2023-10-13T06:57:11;100562.78;;;12.63;100.00
21234;BME280;10774;42.178;26.578;2023-10-13T06:59:42;100572.59;;;12.64;100.00
21234;BME280;10774;42.178;26.578;2023-10-13T07:02:08;100564.63;;;12.77;99.71
21234;BME280;10774;42.178;26.578;2023-10-13T07:04:36;100578.81;;;13.07;97.43
21234;BME280;10774;42.178;26.578;2023-10-13T07:07:05;100570.25;;;13.01;98.71
21234;BME280;10774;42.178;26.578;2023-10-13T07:09:31;100584.53;;;13.03;100.00
21234;BME280;10774;42.178;26.578;2023-10-13T07:12:00;100580.47;;;13.24;100.00
21234;BME280;10774;42.178;26.578;2023-10-13T07:14:26;100576.78;;;13.67;98.72
21234;BME280;10774;42.178;26.578;2023-10-13T07:17:03;100571.56;;;13.91;96.94
21234;BME280;10774;42.178;26.578;2023-10-13T07:19:30;100565.53;;;14.12;97.27
21234;BME280;10774;42.178;26.578;2023-10-13T07:22:00;100573.63;;;14.52;95.44
21234;BME280;10774;42.178;26.578;2023-10-13T07:24:49;100582.16;;;14.59;96.99
21234;BME280;10774;42.178;26.578;2023-10-13T07:27:24;100580.09;;;14.75;99.21
21234;BME280;10774;42.178;26.578;2023-10-13T07:29:51;100577.19;;;15.28;95.91
21234;BME280;10774;42.178;26.578;2023-10-13T07:32:23;100577.47;;;14.99;93.87
21234;BME280;10774;42.178;26.578;2023-10-13T07:34:53;100577.09;;;15.16;96.26
21234;BME280;10774;42.178;26.578;2023-10-13T07:37:22;100568.72;;;14.96;97.40
21234;BME280;10774;42.178;26.578;2023-10-13T07:39:50;100571.31;;;15.34;98.36
21234;BME280;10774;42.178;26.578;2023-10-13T07:42:16;100569.03;;;15.77;97.30
21234;BME280;10774;42.178;26.578;2023-10-13T07:44:45;100561.31;;;16.19;94.68
21234;BME280;10774;42.178;26.578;2023-10-13T07:47:13;100565.78;;;16.42;90.63
21234;BME280;10774;42.178;26.578;2023-10-13T07:49:43;100560.53;;;16.17;92.98
21234;BME280;10774;42.178;26.578;2023-10-13T07:52:11;100562.06;;;16.32;91.39
21234;BME280;10774;42.178;26.578;2023-10-13T07:54:48;100569.72;;;16.61;90.78
21234;BME280;10774;42.178;26.578;2023-10-13T07:57:34;100570.53;;;16.74;88.11
21234;BME280;10774;42.178;26.578;2023-10-13T07:59:59;100566.81;;;16.97;86.02
21234;BME280;10774;42.178;26.578;2023-10-13T08:02:56;100565.09;;;17.30;84.34
21234;BME280;10774;42.178;26.578;2023-10-13T08:05:34;100570.50;;;17.41;81.46
21234;BME280;10774;42.178;26.578;2023-10-13T08:08:21;100551.69;;;17.49;80.27
21234;BME280;10774;42.178;26.578;2023-10-13T08:10:47;100567.06;;;17.06;82.54
21234;BME280;10774;42.178;26.578;2023-10-13T08:13:12;100559.97;;;17.48;81.19
21234;BME280;10774;42.178;26.578;2023-10-13T08:15:41;100566.84;;;17.74;79.28
21234;BME280;10774;42.178;26.578;2023-10-13T08:18:16;100571.78;;;18.01;77.86
21234;BME280;10774;42.178;26.578;2023-10-13T08:21:03;100566.69;;;18.29;76.36
21234;BME280;10774;42.178;26.578;2023-10-13T08:23:32;100561.47;;;18.58;75.08
21234;BME280;10774;42.178;26.578;2023-10-13T08:26:16;100544.44;;;18.66;74.30
21234;BME280;10774;42.178;26.578;2023-10-13T08:29:00;100557.47;;;18.83;73.14
21234;BME280;10774;42.178;26.578;2023-10-13T08:31:46;100552.66;;;18.96;72.98
21234;BME280;10774;42.178;26.578;2023-10-13T08:34:32;100550.94;;;18.95;71.94
21234;BME280;10774;42.178;26.578;2023-10-13T08:37:28;100556.16;;;19.18;69.26
21234;BME280;10774;42.178;26.578;2023-10-13T08:40:13;100559.72;;;19.18;67.65
21234;BME280;10774;42.178;26.578;2023-10-13T08:42:46;100551.75;;;19.26;67.24
21234;BME280;10774;42.178;26.578;2023-10-13T08:45:15;100540.31;;;19.42;65.77
21234;BME280;10774;42.178;26.578;2023-10-13T08:47:59;100543.75;;;19.44;64.14
21234;BME280;10774;42.178;26.578;2023-10-13T08:53:28;100543.16;;;19.31;63.20
21234;BME280;10774;42.178;26.578;2023-10-13T08:56:06;100535.13;;;19.20;63.73
21234;BME280;10774;42.178;26.578;2023-10-13T08:58:56;100525.56;;;19.54;61.65
21234;BME280;10774;42.178;26.578;2023-10-13T09:01:45;100520.59;;;19.59;61.76
21234;BME280;10774;42.178;26.578;2023-10-13T09:04:12;100517.31;;;19.85;60.24
21234;BME280;10774;42.178;26.578;2023-10-13T09:06:50;100520.56;;;20.18;59.50
21234;BME280;10774;42.178;26.578;2023-10-13T09:09:28;100517.41;;;20.13;58.32
21234;BME280;10774;42.178;26.578;2023-10-13T09:12:22;100526.75;;;20.10;57.44
21234;BME280;10774;42.178;26.578;2023-10-13T09:15:05;100507.69;;;20.00;57.60
21234;BME280;10774;42.178;26.578;2023-10-13T09:17:46;100515.44;;;20.15;57.64
21234;BME280;10774;42.178;26.578;2023-10-13T09:20:30;100508.16;;;20.62;56.33
21234;BME280;10774;42.178;26.578;2023-10-13T09:23:18;100515.53;;;20.89;55.22
21234;BME280;10774;42.178;26.578;2023-10-13T09:25:51;100497.59;;;20.77;55.02
21234;BME280;10774;42.178;26.578;2023-10-13T09:28:23;100490.75;;;21.00;54.89
21234;BME280;10774;42.178;26.578;2023-10-13T09:30:56;100496.47;;;21.25;54.03
21234;BME280;10774;42.178;26.578;2023-10-13T09:33:29;100486.25;;;21.36;53.42
21234;BME280;10774;42.178;26.578;2023-10-13T09:35:58;100493.44;;;21.37;53.87
21234;BME280;10774;42.178;26.578;2023-10-13T09:38:27;100484.59;;;21.61;54.48
21234;BME280;10774;42.178;26.578;2023-10-13T09:40:53;100483.88;;;21.95;52.51
21234;BME280;10774;42.178;26.578;2023-10-13T09:43:22;100485.06;;;22.10;52.17
21234;BME280;10774;42.178;26.578;2023-10-13T09:45:49;100481.31;;;21.76;53.31
21234;BME280;10774;42.178;26.578;2023-10-13T09:48:37;100478.97;;;21.81;51.39
21234;BME280;10774;42.178;26.578;2023-10-13T09:51:12;100475.22;;;21.82;50.64
21234;BME280;10774;42.178;26.578;2023-10-13T09:53:40;100483.41;;;22.17;50.78
21234;BME280;10774;42.178;26.578;2023-10-13T09:56:18;100478.78;;;22.44;49.63
21234;BME280;10774;42.178;26.578;2023-10-13T09:58:53;100471.13;;;22.48;49.02
21234;BME280;10774;42.178;26.578;2023-10-13T10:01:24;100465.19;;;22.08;49.62
21234;BME280;10774;42.178;26.578;2023-10-13T10:04:11;100472.38;;;22.61;48.46
21234;BME280;10774;42.178;26.578;2023-10-13T10:06:56;100469.03;;;22.76;48.04
21234;BME280;10774;42.178;26.578;2023-10-13T10:09:33;100474.41;;;22.85;46.32
21234;BME280;10774;42.178;26.578;2023-10-13T10:15:32;100464.38;;;22.94;46.55
21234;BME280;10774;42.178;26.578;2023-10-13T10:18:00;100464.13;;;23.21;45.36
21234;BME280;10774;42.178;26.578;2023-10-13T10:20:36;100448.41;;;23.48;45.00
21234;BME280;10774;42.178;26.578;2023-10-13T10:23:07;100462.50;;;23.69;45.41
21234;BME280;10774;42.178;26.578;2023-10-13T10:25:47;100448.97;;;23.92;44.57
21234;BME280;10774;42.178;26.578;2023-10-13T10:28:13;100449.78;;;24.09;43.50
21234;BME280;10774;42.178;26.578;2023-10-13T10:30:42;100447.72;;;24.36;44.50
21234;BME280;10774;42.178;26.578;2023-10-13T10:33:10;100435.38;;;24.32;43.19
21234;BME280;10774;42.178;26.578;2023-10-13T10:35:43;100441.00;;;24.46;43.84
21234;BME280;10774;42.178;26.578;2023-10-13T10:38:19;100433.28;;;24.50;41.38
21234;BME280;10774;42.178;26.578;2023-10-13T10:40:55;100445.22;;;24.73;40.83
21234;BME280;10774;42.178;26.578;2023-10-13T10:43:28;100438.66;;;24.83;40.50
21234;BME280;10774;42.178;26.578;2023-10-13T10:46:07;100432.59;;;24.95;40.40
21234;BME280;10774;42.178;26.578;2023-10-13T10:48:33;100421.34;;;25.13;41.31
21234;BME280;10774;42.178;26.578;2023-10-13T10:51:00;100406.88;;;25.19;38.77
21234;BME280;10774;42.178;26.578;2023-10-13T10:53:33;100419.78;;;25.19;39.14
21234;BME280;10774;42.178;26.578;2023-10-13T10:56:09;100402.94;;;24.83;38.82
21234;BME280;10774;42.178;26.578;2023-10-13T10:58:55;100412.28;;;25.36;38.88
21234;BME280;10774;42.178;26.578;2023-10-13T11:01:25;100411.91;;;25.16;38.48
21234;BME280;10774;42.178;26.578;2023-10-13T11:04:03;100399.47;;;24.89;38.28
21234;BME280;10774;42.178;26.578;2023-10-13T11:06:56;100393.09;;;25.27;37.54
21234;BME280;10774;42.178;26.578;2023-10-13T11:09:27;100390.78;;;25.16;37.73
21234;BME280;10774;42.178;26.578;2023-10-13T11:11:55;100397.44;;;24.91;38.06
21234;BME280;10774;42.178;26.578;2023-10-13T11:14:25;100394.88;;;24.50;38.82
21234;BME280;10774;42.178;26.578;2023-10-13T11:16:57;100388.22;;;24.20;39.72
21234;BME280;10774;42.178;26.578;2023-10-13T11:19:42;100377.47;;;24.10;39.89
21234;BME280;10774;42.178;26.578;2023-10-13T11:22:29;100390.66;;;24.70;39.18
21234;BME280;10774;42.178;26.578;2023-10-13T11:25:20;100381.16;;;24.81;39.31
21234;BME280;10774;42.178;26.578;2023-10-13T11:28:20;100393.97;;;25.28;37.39
21234;BME280;10774;42.178;26.578;2023-10-13T11:30:48;100384.56;;;25.22;37.40
21234;BME280;10774;42.178;26.578;2023-10-13T11:33:20;100373.91;;;25.19;37.81
21234;BME280;10774;42.178;26.578;2023-10-13T11:35:55;100387.03;;;25.78;37.22
21234;BME280;10774;42.178;26.578;2023-10-13T11:38:31;100380.09;;;26.05;36.77
21234;BME280;10774;42.178;26.578;2023-10-13T11:41:17;100387.81;;;26.54;37.40
21234;BME280;10774;42.178;26.578;2023-10-13T11:43:52;100386.47;;;26.65;35.33
21234;BME280;10774;42.178;26.578;2023-10-13T11:46:27;100358.81;;;25.99;35.98
21234;BME280;10774;42.178;26.578;2023-10-13T11:51:47;100373.28;;;26.60;35.58
21234;BME280;10774;42.178;26.578;2023-10-13T11:54:17;100371.44;;;27.18;35.84
21234;BME280;10774;42.178;26.578;2023-10-13T11:56:46;100370.94;;;27.29;35.07
21234;BME280;10774;42.178;26.578;2023-10-13T11:59:12;100376.72;;;26.83;34.24
21234;BME280;10774;42.178;26.578;2023-10-13T12:01:47;100375.56;;;26.42;34.57
21234;BME280;10774;42.178;26.578;2023-10-13T12:04:32;100372.41;;;26.30;34.24
21234;BME280;10774;42.178;26.578;2023-10-13T12:07:18;100374.63;;;27.00;34.18
21234;BME280;10774;42.178;26.578;2023-10-13T12:09:50;100372.50;;;27.17;34.09
21234;BME280;10774;42.178;26.578;2023-10-13T12:12:19;100367.22;;;26.50;34.79
21234;BME280;10774;42.178;26.578;2023-10-13T12:14:45;100364.31;;;26.73;34.31
21234;BME280;10774;42.178;26.578;2023-10-13T12:17:28;100356.78;;;26.96;34.45
21234;BME280;10774;42.178;26.578;2023-10-13T12:19:57;100356.69;;;27.26;34.41
21234;BME280;10774;42.178;26.578;2023-10-13T12:22:24;100356.03;;;26.88;33.55
21234;BME280;10774;42.178;26.578;2023-10-13T12:25:10;100360.16;;;26.62;34.39
21234;BME280;10774;42.178;26.578;2023-10-13T12:28:00;100369.47;;;26.31;34.43
21234;BME280;10774;42.178;26.578;2023-10-13T12:30:53;100365.91;;;26.82;34.05
21234;BME280;10774;42.178;26.578;2023-10-13T12:33:22;100364.09;;;27.47;33.09
21234;BME280;10774;42.178;26.578;2023-10-13T12:35:58;100355.00;;;28.30;32.48
21234;BME280;10774;42.178;26.578;2023-10-13T12:38:39;100343.84;;;29.00;32.34
21234;BME280;10774;42.178;26.578;2023-10-13T12:41:20;100351.97;;;29.14;30.88
21234;BME280;10774;42.178;26.578;2023-10-13T12:44:05;100343.50;;;27.43;33.24
21234;BME280;10774;42.178;26.578;2023-10-13T12:46:50;100356.59;;;26.83;34.50
21234;BME280;10774;42.178;26.578;2023-10-13T12:49:35;100351.81;;;26.70;34.52
21234;BME280;10774;42.178;26.578;2023-10-13T12:52:07;100365.19;;;26.29;35.18
21234;BME280;10774;42.178;26.578;2023-10-13T12:54:45;100365.47;;;26.19;34.91
21234;BME280;10774;42.178;26.578;2023-10-13T12:57:27;100360.41;;;25.93;35.33
21234;BME280;10774;42.178;26.578;2023-10-13T12:59:53;100360.53;;;25.85;35.55
21234;BME280;10774;42.178;26.578;2023-10-13T13:02:22;100349.47;;;25.70;35.93
21234;BME280;10774;42.178;26.578;2023-10-13T13:04:54;100349.47;;;25.70;36.02
21234;BME280;10774;42.178;26.578;2023-10-13T13:07:27;100345.75;;;25.63;36.06
21234;BME280;10774;42.178;26.578;2023-10-13T13:09:56;100338.16;;;25.65;36.88
21234;BME280;10774;42.178;26.578;2023-10-13T13:12:25;100345.84;;;25.70;36.94
21234;BME280;10774;42.178;26.578;2023-10-13T13:14:53;100344.59;;;25.72;36.74
21234;BME280;10774;42.178;26.578;2023-10-13T13:17:23;100349.59;;;25.77;36.79
21234;BME280;10774;42.178;26.578;2023-10-13T13:19:48;100332.97;;;25.70;36.66
21234;BME280;10774;42.178;26.578;2023-10-13T13:22:14;100342.75;;;25.50;36.80
21234;BME280;10774;42.178;26.578;2023-10-13T13:24:43;100329.41;;;25.47;36.96
21234;BME280;10774;42.178;26.578;2023-10-13T13:27:12;100329.22;;;25.48;37.43
21234;BME280;10774;42.178;26.578;2023-10-13T13:29:47;100327.50;;;25.47;36.90